The Villages, FL

4:14 PM EDT on August 04, 2015 (GMT -0400)
APRSWXNET | | Change Station
CLOSE
Current Station
Personal Weather Station
Location: The Villages, FL
Elevation: 88 ft
Nearby Weather Stations

Elev 88 ft 28.93 °N, 82.01 °W | Updated 34 days ago

Cloudy
Cloudy
85 °F
Feels Like 91 °F
N
8
Wind Variable Wind from WSW
Gusts mph

Today
High -- | Low -- °F
--% Chance of Precip.
Yesterday
High -- | Low -- °F
Precip. -- in
6:50 AM 8:17 PM
Waning Gibbous, 75% visible
Pressure 30.05 in
Visibility 10.0 miles
Clouds Few 7000 ft
Few 9000 ft
Mostly Cloudy 11000 ft
Heat Index 91 °F
Dew Point 74 °F
Humidity 69%
Rainfall in
Snow Depth Not available.
UV 6 out of 12
Pollen 3.90 out of 12
Air Quality Not available.
Flu Activity Not available.
METAR KLEE 041953Z AUTO 20005KT 10SM -RA FEW070 FEW090 BKN110 26/23 A3005 RMK AO2 LTG DSNT SE RAE1855B20 TSB20E35 PRESFR SLP174 P0001 T02560233

More Conditions Fewer Conditions

Pressure 30.05 in
Visibility 10.0 miles
Clouds Few 7000 ft
Few 9000 ft
Mostly Cloudy 11000 ft
Heat Index 91 °F
Dew Point 74 °F
Humidity 69%
Rainfall in
Snow Depth Not available.
UV 6 out of 12
Pollen 3.90 out of 12
Air Quality Not available.
Flu Activity Not available.
METAR KLEE 041953Z AUTO 20005KT 10SM -RA FEW070 FEW090 BKN110 26/23 A3005 RMK AO2 LTG DSNT SE RAE1855B20 TSB20E35 PRESFR SLP174 P0001 T02560233

More Conditions Fewer Conditions

10-Day Weather Forecast

×

Almanac

Astronomy

Aug. 04, 2015 Rise Set
Actual Time
Civil Twilight
Nautical Twilight
Astronomical Twilight
Moon
Length of Visible Light
Length of Day
Tomorrow will be .
, % of the Moon is Illuminated

Today's Extremes

State Highs State Lows

Community

WunderPhotos

Upload Photos

1,843,962 photos uploaded!

WunderBlogs® & News

Nearby

Air Quality

  Air Quality AQ Index Pollutant
Not available.

Snow Depth

Station Depth Elevation

Earthquake Activity

City Distance Mag. Time & Date
Minimum magnitude displayed is 2.5.

Coastal Water Temperatures

Place Temperature

Stations

Nearby Weather Stations

Station Location Temp. Windchill Dew Point Humidity Wind Precip. Elev Updated Type